sensor_id;sensor_type;location;lat;lon;timestamp;temperature;humidity
46416;DHT22;32620;51.704;7.822;2022-07-29T00:00:44;18.40;95.20
46416;DHT22;32620;51.704;7.822;2022-07-29T00:03:11;18.40;95.10
46416;DHT22;32620;51.704;7.822;2022-07-29T00:05:38;18.40;95.20
46416;DHT22;32620;51.704;7.822;2022-07-29T00:08:04;18.40;95.70
46416;DHT22;32620;51.704;7.822;2022-07-29T00:10:29;18.30;95.70
46416;DHT22;32620;51.704;7.822;2022-07-29T00:12:55;18.30;96.00
46416;DHT22;32620;51.704;7.822;2022-07-29T00:15:20;18.30;96.20
46416;DHT22;32620;51.704;7.822;2022-07-29T00:17:45;18.30;96.50
46416;DHT22;32620;51.704;7.822;2022-07-29T00:20:11;18.20;96.60
46416;DHT22;32620;51.704;7.822;2022-07-29T00:22:37;18.20;96.80
46416;DHT22;32620;51.704;7.822;2022-07-29T00:25:03;18.20;96.60
46416;DHT22;32620;51.704;7.822;2022-07-29T00:27:28;18.20;97.30
46416;DHT22;32620;51.704;7.822;2022-07-29T00:29:54;18.10;97.30
46416;DHT22;32620;51.704;7.822;2022-07-29T00:32:19;18.10;97.60
46416;DHT22;32620;51.704;7.822;2022-07-29T00:34:45;18.10;97.50
46416;DHT22;32620;51.704;7.822;2022-07-29T00:37:30;18.10;97.60
46416;DHT22;32620;51.704;7.822;2022-07-29T00:39:56;18.10;97.60
46416;DHT22;32620;51.704;7.822;2022-07-29T00:42:21;18.10;97.90
46416;DHT22;32620;51.704;7.822;2022-07-29T00:44:47;18.00;98.50
46416;DHT22;32620;51.704;7.822;2022-07-29T00:47:12;18.00;98.80
46416;DHT22;32620;51.704;7.822;2022-07-29T00:49:38;18.00;99.10
46416;DHT22;32620;51.704;7.822;2022-07-29T00:52:04;17.90;99.20
46416;DHT22;32620;51.704;7.822;2022-07-29T00:54:30;17.90;99.00
46416;DHT22;32620;51.704;7.822;2022-07-29T00:56:57;17.90;99.20
46416;DHT22;32620;51.704;7.822;2022-07-29T00:59:23;17.90;99.20
46416;DHT22;32620;51.704;7.822;2022-07-29T01:01:48;17.90;99.60
46416;DHT22;32620;51.704;7.822;2022-07-29T01:04:14;18.00;99.50
46416;DHT22;32620;51.704;7.822;2022-07-29T01:06:39;17.90;99.70
46416;DHT22;32620;51.704;7.822;2022-07-29T01:09:05;17.90;99.60
46416;DHT22;32620;51.704;7.822;2022-07-29T01:11:31;17.90;99.90
46416;DHT22;32620;51.704;7.822;2022-07-29T01:13:56;17.90;99.90
46416;DHT22;32620;51.704;7.822;2022-07-29T01:16:25;17.90;99.80
46416;DHT22;32620;51.704;7.822;2022-07-29T01:18:53;17.90;99.90
46416;DHT22;32620;51.704;7.822;2022-07-29T01:21:27;17.90;99.90
46416;DHT22;32620;51.704;7.822;2022-07-29T01:26:46;17.80;99.90
46416;DHT22;32620;51.704;7.822;2022-07-29T01:29:46;17.80;99.90
46416;DHT22;32620;51.704;7.822;2022-07-29T01:32:15;17.80;99.90
46416;DHT22;32620;51.704;7.822;2022-07-29T01:35:02;17.80;99.90
46416;DHT22;32620;51.704;7.822;2022-07-29T01:37:30;17.70;99.90
46416;DHT22;32620;51.704;7.822;2022-07-29T01:39:58;17.80;99.90
46416;DHT22;32620;51.704;7.822;2022-07-29T01:42:34;17.70;99.90
46416;DHT22;32620;51.704;7.822;2022-07-29T01:45:03;17.70;99.90
46416;DHT22;32620;51.704;7.822;2022-07-29T01:47:33;17.80;99.90
46416;DHT22;32620;51.704;7.822;2022-07-29T01:50:00;17.80;99.90
46416;DHT22;32620;51.704;7.822;2022-07-29T01:52:58;17.80;99.90
46416;DHT22;32620;51.704;7.822;2022-07-29T01:55:12;17.80;99.90
46416;DHT22;32620;51.704;7.822;2022-07-29T01:57:39;17.80;99.90
46416;DHT22;32620;51.704;7.822;2022-07-29T02:00:05;17.80;99.90
46416;DHT22;32620;51.704;7.822;2022-07-29T02:02:31;17.90;99.90
46416;DHT22;32620;51.704;7.822;2022-07-29T02:04:58;17.90;99.90
46416;DHT22;32620;51.704;7.822;2022-07-29T02:07:25;17.90;99.90
46416;DHT22;32620;51.704;7.822;2022-07-29T02:09:52;17.90;99.90
46416;DHT22;32620;51.704;7.822;2022-07-29T02:12:18;17.80;99.90
46416;DHT22;32620;51.704;7.822;2022-07-29T02:14:45;17.80;99.90
46416;DHT22;32620;51.704;7.822;2022-07-29T02:17:12;17.80;99.90
46416;DHT22;32620;51.704;7.822;2022-07-29T02:19:38;17.80;99.90
46416;DHT22;32620;51.704;7.822;2022-07-29T02:22:04;17.80;99.90
46416;DHT22;32620;51.704;7.822;2022-07-29T02:24:31;17.80;99.90
46416;DHT22;32620;51.704;7.822;2022-07-29T02:26:56;17.80;99.90
46416;DHT22;32620;51.704;7.822;2022-07-29T02:29:23;17.80;99.90
46416;DHT22;32620;51.704;7.822;2022-07-29T02:31:50;17.80;99.90
46416;DHT22;32620;51.704;7.822;2022-07-29T02:34:17;17.80;99.90
46416;DHT22;32620;51.704;7.822;2022-07-29T02:36:42;17.80;99.90
46416;DHT22;32620;51.704;7.822;2022-07-29T02:39:09;17.70;99.90
46416;DHT22;32620;51.704;7.822;2022-07-29T02:41:43;17.80;99.90
46416;DHT22;32620;51.704;7.822;2022-07-29T02:44:11;17.70;99.90
46416;DHT22;32620;51.704;7.822;2022-07-29T02:46:37;17.80;99.90
46416;DHT22;32620;51.704;7.822;2022-07-29T02:49:09;17.70;99.90
46416;DHT22;32620;51.704;7.822;2022-07-29T02:52:08;17.70;99.90
46416;DHT22;32620;51.704;7.822;2022-07-29T02:54:23;17.70;99.90
46416;DHT22;32620;51.704;7.822;2022-07-29T02:56:50;17.60;99.90
46416;DHT22;32620;51.704;7.822;2022-07-29T02:59:20;17.60;99.90
46416;DHT22;32620;51.704;7.822;2022-07-29T03:01:47;17.50;99.90
46416;DHT22;32620;51.704;7.822;2022-07-29T03:04:13;17.60;99.90
46416;DHT22;32620;51.704;7.822;2022-07-29T03:06:39;17.50;99.90
46416;DHT22;32620;51.704;7.822;2022-07-29T03:09:06;17.60;99.90
46416;DHT22;32620;51.704;7.822;2022-07-29T03:11:32;17.50;99.90
46416;DHT22;32620;51.704;7.822;2022-07-29T03:13:58;17.60;99.90
46416;DHT22;32620;51.704;7.822;2022-07-29T03:16:23;17.60;99.90
46416;DHT22;32620;51.704;7.822;2022-07-29T03:18:50;17.60;99.90
46416;DHT22;32620;51.704;7.822;2022-07-29T03:21:15;17.60;99.90
46416;DHT22;32620;51.704;7.822;2022-07-29T03:23:44;17.60;99.90
46416;DHT22;32620;51.704;7.822;2022-07-29T03:26:11;17.60;99.90
46416;DHT22;32620;51.704;7.822;2022-07-29T03:28:37;17.70;99.90
46416;DHT22;32620;51.704;7.822;2022-07-29T03:31:02;17.70;99.90
46416;DHT22;32620;51.704;7.822;2022-07-29T03:33:28;17.70;99.90
46416;DHT22;32620;51.704;7.822;2022-07-29T03:35:55;17.70;99.90
46416;DHT22;32620;51.704;7.822;2022-07-29T03:38:21;17.70;99.90
46416;DHT22;32620;51.704;7.822;2022-07-29T03:40:51;17.80;99.90
46416;DHT22;32620;51.704;7.822;2022-07-29T03:43:18;17.80;99.90
46416;DHT22;32620;51.704;7.822;2022-07-29T03:45:44;17.90;99.90
46416;DHT22;32620;51.704;7.822;2022-07-29T03:48:12;17.90;99.90
46416;DHT22;32620;51.704;7.822;2022-07-29T03:50:39;17.90;99.90
46416;DHT22;32620;51.704;7.822;2022-07-29T03:53:04;17.90;99.90
46416;DHT22;32620;51.704;7.822;2022-07-29T03:55:32;17.90;99.90
46416;DHT22;32620;51.704;7.822;2022-07-29T03:57:58;17.90;99.90
46416;DHT22;32620;51.704;7.822;2022-07-29T04:00:25;17.90;99.90
46416;DHT22;32620;51.704;7.822;2022-07-29T04:02:52;18.00;99.90
46416;DHT22;32620;51.704;7.822;2022-07-29T04:05:18;18.00;99.90
46416;DHT22;32620;51.704;7.822;2022-07-29T04:07:44;18.00;99.90
46416;DHT22;32620;51.704;7.822;2022-07-29T04:10:09;18.00;99.90
46416;DHT22;32620;51.704;7.822;2022-07-29T04:12:35;18.00;99.90
46416;DHT22;32620;51.704;7.822;2022-07-29T04:15:01;18.00;99.90
46416;DHT22;32620;51.704;7.822;2022-07-29T04:17:27;18.00;99.90
46416;DHT22;32620;51.704;7.822;2022-07-29T04:19:52;18.10;99.80
46416;DHT22;32620;51.704;7.822;2022-07-29T04:22:18;18.10;99.80
46416;DHT22;32620;51.704;7.822;2022-07-29T04:24:43;18.20;99.50
46416;DHT22;32620;51.704;7.822;2022-07-29T04:27:09;18.30;99.20
46416;DHT22;32620;51.704;7.822;2022-07-29T04:29:34;18.30;99.20
46416;DHT22;32620;51.704;7.822;2022-07-29T04:32:00;18.40;99.40
46416;DHT22;32620;51.704;7.822;2022-07-29T04:34:25;18.30;99.40
46416;DHT22;32620;51.704;7.822;2022-07-29T04:36:50;18.40;99.00
46416;DHT22;32620;51.704;7.822;2022-07-29T04:39:16;18.40;98.50
46416;DHT22;32620;51.704;7.822;2022-07-29T04:41:43;18.40;99.50
46416;DHT22;32620;51.704;7.822;2022-07-29T04:44:08;18.40;98.80
46416;DHT22;32620;51.704;7.822;2022-07-29T04:46:34;18.40;99.40
46416;DHT22;32620;51.704;7.822;2022-07-29T04:49:00;18.40;99.00
46416;DHT22;32620;51.704;7.822;2022-07-29T04:51:25;18.40;99.10
46416;DHT22;32620;51.704;7.822;2022-07-29T04:53:51;18.40;99.60
46416;DHT22;32620;51.704;7.822;2022-07-29T04:56:16;18.40;99.30
46416;DHT22;32620;51.704;7.822;2022-07-29T04:58:42;18.50;99.20
46416;DHT22;32620;51.704;7.822;2022-07-29T05:01:07;18.40;99.30
46416;DHT22;32620;51.704;7.822;2022-07-29T05:03:32;18.50;99.40
46416;DHT22;32620;51.704;7.822;2022-07-29T05:05:58;18.60;99.60
46416;DHT22;32620;51.704;7.822;2022-07-29T05:08:23;18.60;99.20
46416;DHT22;32620;51.704;7.822;2022-07-29T05:10:49;18.80;99.70
46416;DHT22;32620;51.704;7.822;2022-07-29T05:13:15;18.90;99.10
46416;DHT22;32620;51.704;7.822;2022-07-29T05:15:41;19.00;98.10
46416;DHT22;32620;51.704;7.822;2022-07-29T05:18:06;19.20;98.70
46416;DHT22;32620;51.704;7.822;2022-07-29T05:20:32;19.20;99.40
46416;DHT22;32620;51.704;7.822;2022-07-29T05:22:59;19.30;99.90
46416;DHT22;32620;51.704;7.822;2022-07-29T05:25:25;19.30;99.20
46416;DHT22;32620;51.704;7.822;2022-07-29T05:27:51;19.40;99.00
46416;DHT22;32620;51.704;7.822;2022-07-29T05:30:17;19.40;98.70
46416;DHT22;32620;51.704;7.822;2022-07-29T05:32:42;19.40;98.30
46416;DHT22;32620;51.704;7.822;2022-07-29T05:35:08;19.40;98.50
46416;DHT22;32620;51.704;7.822;2022-07-29T05:37:33;19.40;98.90
46416;DHT22;32620;51.704;7.822;2022-07-29T05:39:59;19.40;99.90
46416;DHT22;32620;51.704;7.822;2022-07-29T05:42:25;19.30;99.90
46416;DHT22;32620;51.704;7.822;2022-07-29T05:44:50;19.10;99.90
46416;DHT22;32620;51.704;7.822;2022-07-29T05:47:16;18.80;99.90
46416;DHT22;32620;51.704;7.822;2022-07-29T05:49:42;18.70;99.90
46416;DHT22;32620;51.704;7.822;2022-07-29T05:52:07;18.60;99.90
46416;DHT22;32620;51.704;7.822;2022-07-29T05:54:34;18.70;99.90
46416;DHT22;32620;51.704;7.822;2022-07-29T05:56:59;18.90;99.90
46416;DHT22;32620;51.704;7.822;2022-07-29T05:59:25;19.00;99.90
46416;DHT22;32620;51.704;7.822;2022-07-29T06:01:50;19.20;99.90
46416;DHT22;32620;51.704;7.822;2022-07-29T06:04:16;19.80;99.90
46416;DHT22;32620;51.704;7.822;2022-07-29T06:06:41;20.30;99.90
46416;DHT22;32620;51.704;7.822;2022-07-29T06:09:07;20.30;99.90
46416;DHT22;32620;51.704;7.822;2022-07-29T06:11:33;20.10;99.90
46416;DHT22;32620;51.704;7.822;2022-07-29T06:13:58;20.10;99.90
46416;DHT22;32620;51.704;7.822;2022-07-29T06:16:24;20.20;99.90
46416;DHT22;32620;51.704;7.822;2022-07-29T06:18:49;20.90;99.00
46416;DHT22;32620;51.704;7.822;2022-07-29T06:21:15;21.20;97.80
46416;DHT22;32620;51.704;7.822;2022-07-29T06:23:40;21.10;97.90
46416;DHT22;32620;51.704;7.822;2022-07-29T06:26:06;20.80;98.70
46416;DHT22;32620;51.704;7.822;2022-07-29T06:28:32;20.30;99.70
46416;DHT22;32620;51.704;7.822;2022-07-29T06:30:58;20.10;99.90
46416;DHT22;32620;51.704;7.822;2022-07-29T06:33:23;20.10;99.90
46416;DHT22;32620;51.704;7.822;2022-07-29T06:35:49;20.10;99.90
46416;DHT22;32620;51.704;7.822;2022-07-29T06:38:14;20.00;99.90
46416;DHT22;32620;51.704;7.822;2022-07-29T06:40:42;19.90;99.90
46416;DHT22;32620;51.704;7.822;2022-07-29T06:43:29;20.10;99.90
46416;DHT22;32620;51.704;7.822;2022-07-29T06:45:58;20.20;99.90
46416;DHT22;32620;51.704;7.822;2022-07-29T06:48:23;20.20;99.90
46416;DHT22;32620;51.704;7.822;2022-07-29T06:50:48;20.20;99.60
46416;DHT22;32620;51.704;7.822;2022-07-29T06:53:14;20.30;99.90
46416;DHT22;32620;51.704;7.822;2022-07-29T06:55:39;20.30;99.90
46416;DHT22;32620;51.704;7.822;2022-07-29T06:58:05;20.40;99.70
46416;DHT22;32620;51.704;7.822;2022-07-29T07:00:32;20.30;99.40
46416;DHT22;32620;51.704;7.822;2022-07-29T07:02:57;20.70;99.40
46416;DHT22;32620;51.704;7.822;2022-07-29T07:05:23;20.80;99.00
46416;DHT22;32620;51.704;7.822;2022-07-29T07:07:48;21.10;97.50
46416;DHT22;32620;51.704;7.822;2022-07-29T07:10:14;21.30;98.10
46416;DHT22;32620;51.704;7.822;2022-07-29T07:12:40;21.60;98.30
46416;DHT22;32620;51.704;7.822;2022-07-29T07:15:05;21.90;97.10
46416;DHT22;32620;51.704;7.822;2022-07-29T07:17:31;22.00;96.40
46416;DHT22;32620;51.704;7.822;2022-07-29T07:19:56;22.10;95.90
46416;DHT22;32620;51.704;7.822;2022-07-29T07:22:22;22.30;96.90
46416;DHT22;32620;51.704;7.822;2022-07-29T07:24:47;22.40;95.00
46416;DHT22;32620;51.704;7.822;2022-07-29T07:27:13;22.80;94.30
46416;DHT22;32620;51.704;7.822;2022-07-29T07:29:38;22.80;95.20
46416;DHT22;32620;51.704;7.822;2022-07-29T07:32:06;23.50;92.50
46416;DHT22;32620;51.704;7.822;2022-07-29T07:34:32;24.70;91.10
46416;DHT22;32620;51.704;7.822;2022-07-29T07:36:57;25.10;89.00
46416;DHT22;32620;51.704;7.822;2022-07-29T07:39:22;25.20;87.50
46416;DHT22;32620;51.704;7.822;2022-07-29T07:41:48;25.00;87.10
46416;DHT22;32620;51.704;7.822;2022-07-29T07:44:13;25.20;88.30
46416;DHT22;32620;51.704;7.822;2022-07-29T07:46:39;24.40;87.80
46416;DHT22;32620;51.704;7.822;2022-07-29T07:49:04;24.00;90.40
46416;DHT22;32620;51.704;7.822;2022-07-29T07:51:30;23.60;90.50
46416;DHT22;32620;51.704;7.822;2022-07-29T07:53:55;23.20;90.50
46416;DHT22;32620;51.704;7.822;2022-07-29T07:56:21;23.20;91.40
46416;DHT22;32620;51.704;7.822;2022-07-29T07:58:46;23.40;91.70
46416;DHT22;32620;51.704;7.822;2022-07-29T08:01:12;23.70;90.80
46416;DHT22;32620;51.704;7.822;2022-07-29T08:03:37;25.00;88.30
46416;DHT22;32620;51.704;7.822;2022-07-29T08:06:04;26.90;82.70
46416;DHT22;32620;51.704;7.822;2022-07-29T08:08:29;28.70;78.50
46416;DHT22;32620;51.704;7.822;2022-07-29T08:10:55;30.30;70.70
46416;DHT22;32620;51.704;7.822;2022-07-29T08:13:22;29.60;69.70
46416;DHT22;32620;51.704;7.822;2022-07-29T08:15:47;29.20;69.10
46416;DHT22;32620;51.704;7.822;2022-07-29T08:18:21;29.10;69.10
46416;DHT22;32620;51.704;7.822;2022-07-29T08:20:47;27.90;70.60
46416;DHT22;32620;51.704;7.822;2022-07-29T08:23:12;28.20;71.90
46416;DHT22;32620;51.704;7.822;2022-07-29T08:25:38;28.80;69.30
46416;DHT22;32620;51.704;7.822;2022-07-29T08:28:04;29.60;66.10
46416;DHT22;32620;51.704;7.822;2022-07-29T08:30:29;30.30;66.00
46416;DHT22;32620;51.704;7.822;2022-07-29T08:32:55;30.40;64.20
46416;DHT22;32620;51.704;7.822;2022-07-29T08:35:21;30.50;63.10
46416;DHT22;32620;51.704;7.822;2022-07-29T08:37:47;29.80;64.30
46416;DHT22;32620;51.704;7.822;2022-07-29T08:40:13;30.10;65.10
46416;DHT22;32620;51.704;7.822;2022-07-29T08:42:39;30.20;62.80
46416;DHT22;32620;51.704;7.822;2022-07-29T08:45:05;29.70;63.20
46416;DHT22;32620;51.704;7.822;2022-07-29T08:47:30;29.00;64.70
46416;DHT22;32620;51.704;7.822;2022-07-29T08:49:56;28.50;65.50
46416;DHT22;32620;51.704;7.822;2022-07-29T08:52:22;27.40;69.30
46416;DHT22;32620;51.704;7.822;2022-07-29T08:54:50;27.40;69.40
46416;DHT22;32620;51.704;7.822;2022-07-29T08:57:17;28.10;67.70
46416;DHT22;32620;51.704;7.822;2022-07-29T08:59:43;29.60;67.50
46416;DHT22;32620;51.704;7.822;2022-07-29T09:02:12;29.90;62.80
46416;DHT22;32620;51.704;7.822;2022-07-29T09:04:40;30.70;63.30
46416;DHT22;32620;51.704;7.822;2022-07-29T09:07:06;31.60;61.00
46416;DHT22;32620;51.704;7.822;2022-07-29T09:09:33;31.20;59.40
46416;DHT22;32620;51.704;7.822;2022-07-29T09:12:00;31.80;58.90
46416;DHT22;32620;51.704;7.822;2022-07-29T09:14:26;32.70;57.90
46416;DHT22;32620;51.704;7.822;2022-07-29T09:16:53;32.70;56.90
46416;DHT22;32620;51.704;7.822;2022-07-29T09:19:19;31.60;58.20
46416;DHT22;32620;51.704;7.822;2022-07-29T09:21:45;30.70;58.60
46416;DHT22;32620;51.704;7.822;2022-07-29T09:24:42;30.20;59.70
46416;DHT22;32620;51.704;7.822;2022-07-29T09:27:09;30.60;59.70
46416;DHT22;32620;51.704;7.822;2022-07-29T09:29:35;30.90;60.00
46416;DHT22;32620;51.704;7.822;2022-07-29T09:32:00;31.30;59.00
46416;DHT22;32620;51.704;7.822;2022-07-29T09:34:28;31.30;59.40
46416;DHT22;32620;51.704;7.822;2022-07-29T09:36:56;30.70;58.50
46416;DHT22;32620;51.704;7.822;2022-07-29T09:39:31;32.10;59.30
46416;DHT22;32620;51.704;7.822;2022-07-29T09:41:58;32.20;59.40
46416;DHT22;32620;51.704;7.822;2022-07-29T09:44:24;32.80;55.80
46416;DHT22;32620;51.704;7.822;2022-07-29T09:47:04;32.00;57.90
46416;DHT22;32620;51.704;7.822;2022-07-29T09:49:31;32.00;58.70
46416;DHT22;32620;51.704;7.822;2022-07-29T09:52:06;31.70;57.20
46416;DHT22;32620;51.704;7.822;2022-07-29T09:54:32;31.60;58.10
46416;DHT22;32620;51.704;7.822;2022-07-29T09:57:05;32.30;56.20
46416;DHT22;32620;51.704;7.822;2022-07-29T09:59:32;31.70;56.40
46416;DHT22;32620;51.704;7.822;2022-07-29T10:01:57;32.00;57.10
46416;DHT22;32620;51.704;7.822;2022-07-29T10:04:23;31.70;56.80
46416;DHT22;32620;51.704;7.822;2022-07-29T10:06:57;31.80;58.60
46416;DHT22;32620;51.704;7.822;2022-07-29T10:09:23;31.10;57.40
46416;DHT22;32620;51.704;7.822;2022-07-29T10:12:19;31.00;58.80
46416;DHT22;32620;51.704;7.822;2022-07-29T10:14:34;30.20;59.40
46416;DHT22;32620;51.704;7.822;2022-07-29T10:17:00;30.00;59.50
46416;DHT22;32620;51.704;7.822;2022-07-29T10:19:28;29.70;61.20
46416;DHT22;32620;51.704;7.822;2022-07-29T10:21:54;29.60;60.10
46416;DHT22;32620;51.704;7.822;2022-07-29T10:24:19;28.70;62.60
46416;DHT22;32620;51.704;7.822;2022-07-29T10:26:46;29.10;63.60
46416;DHT22;32620;51.704;7.822;2022-07-29T10:29:13;29.50;62.60
46416;DHT22;32620;51.704;7.822;2022-07-29T10:31:52;28.90;61.10
46416;DHT22;32620;51.704;7.822;2022-07-29T10:34:23;28.30;63.80
46416;DHT22;32620;51.704;7.822;2022-07-29T10:36:56;30.10;64.80
46416;DHT22;32620;51.704;7.822;2022-07-29T10:39:36;30.50;59.60
46416;DHT22;32620;51.704;7.822;2022-07-29T10:42:19;30.10;60.80
46416;DHT22;32620;51.704;7.822;2022-07-29T10:44:46;29.30;61.60
46416;DHT22;32620;51.704;7.822;2022-07-29T10:47:20;28.80;63.20
46416;DHT22;32620;51.704;7.822;2022-07-29T10:50:02;28.90;63.60
46416;DHT22;32620;51.704;7.822;2022-07-29T10:52:59;28.50;64.20
46416;DHT22;32620;51.704;7.822;2022-07-29T10:55:44;27.70;66.60
46416;DHT22;32620;51.704;7.822;2022-07-29T10:58:30;27.30;70.50
46416;DHT22;32620;51.704;7.822;2022-07-29T11:00:46;26.90;71.20
46416;DHT22;32620;51.704;7.822;2022-07-29T11:03:54;26.80;73.30
46416;DHT22;32620;51.704;7.822;2022-07-29T11:05:57;26.70;72.20
46416;DHT22;32620;51.704;7.822;2022-07-29T11:08:23;26.40;74.60
46416;DHT22;32620;51.704;7.822;2022-07-29T11:10:51;26.50;74.80
46416;DHT22;32620;51.704;7.822;2022-07-29T11:13:48;26.10;75.50
46416;DHT22;32620;51.704;7.822;2022-07-29T11:16:02;26.00;74.80
46416;DHT22;32620;51.704;7.822;2022-07-29T11:18:28;26.00;74.90
46416;DHT22;32620;51.704;7.822;2022-07-29T11:20:53;25.70;76.50
46416;DHT22;32620;51.704;7.822;2022-07-29T11:23:27;25.70;75.90
46416;DHT22;32620;51.704;7.822;2022-07-29T11:26:24;25.80;76.00
46416;DHT22;32620;51.704;7.822;2022-07-29T11:28:39;25.60;76.50
46416;DHT22;32620;51.704;7.822;2022-07-29T11:31:07;25.50;77.20
46416;DHT22;32620;51.704;7.822;2022-07-29T11:33:34;25.20;77.50
46416;DHT22;32620;51.704;7.822;2022-07-29T11:36:10;25.10;78.80
46416;DHT22;32620;51.704;7.822;2022-07-29T11:38:36;24.80;78.60
46416;DHT22;32620;51.704;7.822;2022-07-29T11:43:56;24.60;86.20
46416;DHT22;32620;51.704;7.822;2022-07-29T11:46:53;24.10;90.00
46416;DHT22;32620;51.704;7.822;2022-07-29T11:49:07;23.90;90.60
46416;DHT22;32620;51.704;7.822;2022-07-29T11:51:35;23.50;91.30
46416;DHT22;32620;51.704;7.822;2022-07-29T11:54:01;23.60;90.70
46416;DHT22;32620;51.704;7.822;2022-07-29T11:56:27;23.50;90.90
46416;DHT22;32620;51.704;7.822;2022-07-29T11:59:03;23.40;92.50
46416;DHT22;32620;51.704;7.822;2022-07-29T12:01:30;23.40;94.20
46416;DHT22;32620;51.704;7.822;2022-07-29T12:04:03;23.20;96.20
46416;DHT22;32620;51.704;7.822;2022-07-29T12:06:29;22.90;97.80
46416;DHT22;32620;51.704;7.822;2022-07-29T12:08:54;22.70;99.80
46416;DHT22;32620;51.704;7.822;2022-07-29T12:11:20;22.70;99.90
46416;DHT22;32620;51.704;7.822;2022-07-29T12:13:46;22.60;99.90
46416;DHT22;32620;51.704;7.822;2022-07-29T12:16:11;22.60;99.90
46416;DHT22;32620;51.704;7.822;2022-07-29T12:18:37;22.50;99.90
46416;DHT22;32620;51.704;7.822;2022-07-29T12:21:02;22.50;99.90
46416;DHT22;32620;51.704;7.822;2022-07-29T12:23:29;22.40;99.90
46416;DHT22;32620;51.704;7.822;2022-07-29T12:25:55;22.50;99.90
46416;DHT22;32620;51.704;7.822;2022-07-29T12:28:20;22.30;99.90
46416;DHT22;32620;51.704;7.822;2022-07-29T12:30:48;22.50;99.90
46416;DHT22;32620;51.704;7.822;2022-07-29T12:33:15;22.20;99.90
46416;DHT22;32620;51.704;7.822;2022-07-29T12:35:41;22.30;99.90
46416;DHT22;32620;51.704;7.822;2022-07-29T12:38:08;22.30;99.90
46416;DHT22;32620;51.704;7.822;2022-07-29T12:40:34;21.90;99.90
46416;DHT22;32620;51.704;7.822;2022-07-29T12:43:08;22.10;99.90
46416;DHT22;32620;51.704;7.822;2022-07-29T12:45:36;21.90;99.90
46416;DHT22;32620;51.704;7.822;2022-07-29T12:48:01;22.20;99.90
46416;DHT22;32620;51.704;7.822;2022-07-29T12:50:27;22.20;99.90
46416;DHT22;32620;51.704;7.822;2022-07-29T12:52:52;22.30;99.90
46416;DHT22;32620;51.704;7.822;2022-07-29T12:55:49;22.30;99.90
46416;DHT22;32620;51.704;7.822;2022-07-29T12:58:03;22.30;99.90
46416;DHT22;32620;51.704;7.822;2022-07-29T13:00:29;22.20;99.90
46416;DHT22;32620;51.704;7.822;2022-07-29T13:02:55;22.00;99.90
46416;DHT22;32620;51.704;7.822;2022-07-29T13:05:21;21.80;99.90
46416;DHT22;32620;51.704;7.822;2022-07-29T13:07:47;21.80;99.90
46416;DHT22;32620;51.704;7.822;2022-07-29T13:10:15;21.60;99.90
46416;DHT22;32620;51.704;7.822;2022-07-29T13:13:12;21.60;99.90
46416;DHT22;32620;51.704;7.822;2022-07-29T13:15:26;21.60;99.90
46416;DHT22;32620;51.704;7.822;2022-07-29T13:17:51;21.50;99.90
46416;DHT22;32620;51.704;7.822;2022-07-29T13:20:17;21.40;99.90
46416;DHT22;32620;51.704;7.822;2022-07-29T13:22:43;21.50;99.90
46416;DHT22;32620;51.704;7.822;2022-07-29T13:25:12;21.50;99.90
46416;DHT22;32620;51.704;7.822;2022-07-29T13:27:38;21.30;99.90
46416;DHT22;32620;51.704;7.822;2022-07-29T13:30:05;21.30;99.90
46416;DHT22;32620;51.704;7.822;2022-07-29T13:32:31;21.40;99.90
46416;DHT22;32620;51.704;7.822;2022-07-29T13:34:57;21.60;99.90
46416;DHT22;32620;51.704;7.822;2022-07-29T13:37:22;21.40;99.90
46416;DHT22;32620;51.704;7.822;2022-07-29T13:39:48;21.70;99.90
46416;DHT22;32620;51.704;7.822;2022-07-29T13:42:13;21.80;99.90
46416;DHT22;32620;51.704;7.822;2022-07-29T13:44:39;21.80;99.90
46416;DHT22;32620;51.704;7.822;2022-07-29T13:47:05;21.90;99.90
46416;DHT22;32620;51.704;7.822;2022-07-29T13:49:31;21.80;99.90
46416;DHT22;32620;51.704;7.822;2022-07-29T13:51:56;21.80;99.90
46416;DHT22;32620;51.704;7.822;2022-07-29T13:54:22;21.90;99.90
46416;DHT22;32620;51.704;7.822;2022-07-29T13:56:47;21.90;99.90
46416;DHT22;32620;51.704;7.822;2022-07-29T13:59:13;22.00;99.90
46416;DHT22;32620;51.704;7.822;2022-07-29T14:01:39;22.20;99.90
46416;DHT22;32620;51.704;7.822;2022-07-29T14:04:07;22.30;99.90
46416;DHT22;32620;51.704;7.822;2022-07-29T14:06:33;22.50;99.90
46416;DHT22;32620;51.704;7.822;2022-07-29T14:08:59;22.70;99.90
46416;DHT22;32620;51.704;7.822;2022-07-29T14:11:24;22.80;99.90
46416;DHT22;32620;51.704;7.822;2022-07-29T14:13:50;23.10;99.90
46416;DHT22;32620;51.704;7.822;2022-07-29T14:16:15;23.10;99.90
46416;DHT22;32620;51.704;7.822;2022-07-29T14:18:41;23.00;99.90
46416;DHT22;32620;51.704;7.822;2022-07-29T14:21:06;22.90;99.90
46416;DHT22;32620;51.704;7.822;2022-07-29T14:23:32;23.00;99.90
46416;DHT22;32620;51.704;7.822;2022-07-29T14:25:57;22.90;99.90
46416;DHT22;32620;51.704;7.822;2022-07-29T14:28:23;22.70;99.90
46416;DHT22;32620;51.704;7.822;2022-07-29T14:30:48;22.80;99.90
46416;DHT22;32620;51.704;7.822;2022-07-29T14:33:14;22.70;99.90
46416;DHT22;32620;51.704;7.822;2022-07-29T14:35:39;22.90;99.90
46416;DHT22;32620;51.704;7.822;2022-07-29T14:38:05;22.70;99.90
46416;DHT22;32620;51.704;7.822;2022-07-29T14:40:30;22.80;99.90
46416;DHT22;32620;51.704;7.822;2022-07-29T14:42:58;22.80;99.90
46416;DHT22;32620;51.704;7.822;2022-07-29T14:45:24;22.80;99.90
46416;DHT22;32620;51.704;7.822;2022-07-29T14:47:49;22.90;99.90
46416;DHT22;32620;51.704;7.822;2022-07-29T14:50:16;23.10;99.90
46416;DHT22;32620;51.704;7.822;2022-07-29T14:52:41;23.10;99.90
46416;DHT22;32620;51.704;7.822;2022-07-29T14:55:07;23.10;99.90
46416;DHT22;32620;51.704;7.822;2022-07-29T14:57:33;23.10;99.90
46416;DHT22;32620;51.704;7.822;2022-07-29T14:59:58;23.30;99.90
46416;DHT22;32620;51.704;7.822;2022-07-29T15:02:24;23.50;99.90
46416;DHT22;32620;51.704;7.822;2022-07-29T15:04:49;23.50;99.90
46416;DHT22;32620;51.704;7.822;2022-07-29T15:07:15;23.50;99.90
46416;DHT22;32620;51.704;7.822;2022-07-29T15:09:41;24.00;99.90
46416;DHT22;32620;51.704;7.822;2022-07-29T15:12:07;24.10;99.90
46416;DHT22;32620;51.704;7.822;2022-07-29T15:14:33;23.90;99.90
46416;DHT22;32620;51.704;7.822;2022-07-29T15:16:58;24.00;99.90
46416;DHT22;32620;51.704;7.822;2022-07-29T15:19:24;24.20;99.90
46416;DHT22;32620;51.704;7.822;2022-07-29T15:21:49;24.10;99.90
46416;DHT22;32620;51.704;7.822;2022-07-29T15:24:16;24.10;99.90
46416;DHT22;32620;51.704;7.822;2022-07-29T15:26:41;24.30;99.90
46416;DHT22;32620;51.704;7.822;2022-07-29T15:29:07;24.30;99.90
46416;DHT22;32620;51.704;7.822;2022-07-29T15:31:33;24.40;99.90
46416;DHT22;32620;51.704;7.822;2022-07-29T15:33:58;24.80;99.90
46416;DHT22;32620;51.704;7.822;2022-07-29T15:36:24;25.00;99.90